sensor_id;sensor_type;location;lat;lon;timestamp;pressure;altitude;pressure_sealevel;temperature;humidity
19777;BME280;10047;42.490;26.012;2023-02-12T00:01:33;101211.69;;;-2.23;100.00
19777;BME280;10047;42.490;26.012;2023-02-12T00:03:59;101125.81;;;-2.51;100.00
19777;BME280;10047;42.490;26.012;2023-02-12T00:06:25;101191.13;;;-2.19;100.00
19777;BME280;10047;42.490;26.012;2023-02-12T00:08:53;101162.97;;;-2.37;100.00
19777;BME280;10047;42.490;26.012;2023-02-12T00:11:22;101145.81;;;-2.50;100.00
19777;BME280;10047;42.490;26.012;2023-02-12T00:13:47;101210.84;;;-2.42;100.00
19777;BME280;10047;42.490;26.012;2023-02-12T00:16:15;101193.47;;;-2.41;100.00
19777;BME280;10047;42.490;26.012;2023-02-12T00:18:42;101166.09;;;-2.60;100.00
19777;BME280;10047;42.490;26.012;2023-02-12T00:21:07;101156.47;;;-2.14;100.00
19777;BME280;10047;42.490;26.012;2023-02-12T00:23:34;101211.03;;;-1.81;100.00
19777;BME280;10047;42.490;26.012;2023-02-12T00:26:04;101224.66;;;-1.72;100.00
19777;BME280;10047;42.490;26.012;2023-02-12T00:28:29;101217.59;;;-2.21;100.00
19777;BME280;10047;42.490;26.012;2023-02-12T00:30:55;101158.41;;;-2.07;100.00
19777;BME280;10047;42.490;26.012;2023-02-12T00:33:20;101156.22;;;-2.58;100.00
19777;BME280;10047;42.490;26.012;2023-02-12T00:35:54;101149.34;;;-2.26;100.00
19777;BME280;10047;42.490;26.012;2023-02-12T00:38:19;101145.84;;;-2.10;100.00
19777;BME280;10047;42.490;26.012;2023-02-12T00:40:45;101211.16;;;-2.16;100.00
19777;BME280;10047;42.490;26.012;2023-02-12T00:43:10;101151.38;;;-2.36;100.00
19777;BME280;10047;42.490;26.012;2023-02-12T00:45:36;101180.81;;;-2.07;100.00
19777;BME280;10047;42.490;26.012;2023-02-12T00:48:02;101144.94;;;-2.31;100.00
19777;BME280;10047;42.490;26.012;2023-02-12T00:50:28;101124.31;;;-2.29;100.00
19777;BME280;10047;42.490;26.012;2023-02-12T00:52:55;101137.88;;;-2.22;100.00
19777;BME280;10047;42.490;26.012;2023-02-12T00:55:20;101187.25;;;-2.12;100.00
19777;BME280;10047;42.490;26.012;2023-02-12T00:57:46;101195.56;;;-2.12;100.00
19777;BME280;10047;42.490;26.012;2023-02-12T01:00:12;101133.41;;;-2.48;100.00
19777;BME280;10047;42.490;26.012;2023-02-12T01:02:38;101190.47;;;-2.15;100.00
19777;BME280;10047;42.490;26.012;2023-02-12T01:05:03;101198.25;;;-2.07;100.00
19777;BME280;10047;42.490;26.012;2023-02-12T01:07:29;101190.84;;;-2.06;100.00
19777;BME280;10047;42.490;26.012;2023-02-12T01:09:54;101185.84;;;-2.06;100.00
19777;BME280;10047;42.490;26.012;2023-02-12T01:12:20;101119.56;;;-2.23;100.00
19777;BME280;10047;42.490;26.012;2023-02-12T01:14:45;101168.56;;;-2.03;100.00
19777;BME280;10047;42.490;26.012;2023-02-12T01:17:10;101123.00;;;-2.59;100.00
19777;BME280;10047;42.490;26.012;2023-02-12T01:19:36;101183.66;;;-2.19;100.00
19777;BME280;10047;42.490;26.012;2023-02-12T01:22:01;101113.06;;;-2.40;100.00
19777;BME280;10047;42.490;26.012;2023-02-12T01:24:27;101175.06;;;-2.06;100.00
19777;BME280;10047;42.490;26.012;2023-02-12T01:26:52;101161.59;;;-1.70;100.00
19777;BME280;10047;42.490;26.012;2023-02-12T01:29:17;101111.28;;;-2.42;100.00
19777;BME280;10047;42.490;26.012;2023-02-12T01:31:43;101147.94;;;-1.59;100.00
19777;BME280;10047;42.490;26.012;2023-02-12T01:34:09;101158.03;;;-1.77;100.00
19777;BME280;10047;42.490;26.012;2023-02-12T01:36:35;101150.13;;;-1.66;100.00
19777;BME280;10047;42.490;26.012;2023-02-12T01:39:01;101091.78;;;-2.13;100.00
19777;BME280;10047;42.490;26.012;2023-02-12T01:41:30;101148.38;;;-1.69;100.00
19777;BME280;10047;42.490;26.012;2023-02-12T01:46:30;101126.13;;;-1.85;100.00
19777;BME280;10047;42.490;26.012;2023-02-12T01:48:56;101068.00;;;-2.25;100.00
19777;BME280;10047;42.490;26.012;2023-02-12T01:51:22;101134.00;;;-1.95;100.00
19777;BME280;10047;42.490;26.012;2023-02-12T01:53:52;101071.97;;;-2.30;100.00
19777;BME280;10047;42.490;26.012;2023-02-12T01:56:18;101085.47;;;-2.44;100.00
19777;BME280;10047;42.490;26.012;2023-02-12T01:58:46;101118.56;;;-2.07;100.00
19777;BME280;10047;42.490;26.012;2023-02-12T02:01:17;101133.50;;;-2.07;100.00
19777;BME280;10047;42.490;26.012;2023-02-12T02:03:45;101129.09;;;-2.72;100.00
19777;BME280;10047;42.490;26.012;2023-02-12T02:06:19;101127.06;;;-2.42;100.00
19777;BME280;10047;42.490;26.012;2023-02-12T02:08:45;101112.41;;;-2.55;100.00
19777;BME280;10047;42.490;26.012;2023-02-12T02:11:11;101065.63;;;-2.43;100.00
19777;BME280;10047;42.490;26.012;2023-02-12T02:13:55;101111.59;;;-2.73;100.00
19777;BME280;10047;42.490;26.012;2023-02-12T02:16:48;101049.06;;;-2.42;100.00
19777;BME280;10047;42.490;26.012;2023-02-12T02:22:43;101030.25;;;-2.76;100.00
19777;BME280;10047;42.490;26.012;2023-02-12T02:33:58;101047.03;;;-2.51;100.00
19777;BME280;10047;42.490;26.012;2023-02-12T02:36:39;101026.63;;;-2.03;100.00
19777;BME280;10047;42.490;26.012;2023-02-12T02:39:21;101071.59;;;-1.78;100.00
19777;BME280;10047;42.490;26.012;2023-02-12T02:41:58;101076.06;;;-1.70;100.00
19777;BME280;10047;42.490;26.012;2023-02-12T02:44:41;101077.81;;;-1.89;100.00
19777;BME280;10047;42.490;26.012;2023-02-12T02:47:10;101068.47;;;-1.51;100.00
19777;BME280;10047;42.490;26.012;2023-02-12T02:49:45;101079.44;;;-1.46;100.00
19777;BME280;10047;42.490;26.012;2023-02-12T02:52:46;101089.84;;;-1.79;100.00
19777;BME280;10047;42.490;26.012;2023-02-12T02:55:16;101057.69;;;-1.93;100.00
19777;BME280;10047;42.490;26.012;2023-02-12T02:57:50;101046.78;;;-1.97;100.00
19777;BME280;10047;42.490;26.012;2023-02-12T03:03:16;101054.53;;;-2.10;100.00
19777;BME280;10047;42.490;26.012;2023-02-12T03:05:49;101122.16;;;-1.80;100.00
19777;BME280;10047;42.490;26.012;2023-02-12T03:08:24;101083.63;;;-2.29;100.00
19777;BME280;10047;42.490;26.012;2023-02-12T03:10:56;101015.75;;;-2.46;100.00
19777;BME280;10047;42.490;26.012;2023-02-12T03:13:32;101104.53;;;-1.64;100.00
19777;BME280;10047;42.490;26.012;2023-02-12T03:16:12;101055.69;;;-2.02;100.00
19777;BME280;10047;42.490;26.012;2023-02-12T03:18:49;101099.09;;;-2.16;100.00
19777;BME280;10047;42.490;26.012;2023-02-12T03:21:21;101118.59;;;-1.87;100.00
19777;BME280;10047;42.490;26.012;2023-02-12T03:26:53;101099.00;;;-1.57;100.00
19777;BME280;10047;42.490;26.012;2023-02-12T03:29:19;101038.63;;;-2.13;100.00
19777;BME280;10047;42.490;26.012;2023-02-12T03:32:00;101115.44;;;-1.83;100.00
19777;BME280;10047;42.490;26.012;2023-02-12T03:34:47;101110.25;;;-1.66;100.00
19777;BME280;10047;42.490;26.012;2023-02-12T03:37:24;101095.38;;;-1.86;100.00
19777;BME280;10047;42.490;26.012;2023-02-12T03:39:59;101101.75;;;-1.71;100.00
19777;BME280;10047;42.490;26.012;2023-02-12T03:48:21;101120.56;;;-1.57;100.00
19777;BME280;10047;42.490;26.012;2023-02-12T03:50:58;101104.94;;;-1.53;100.00
19777;BME280;10047;42.490;26.012;2023-02-12T03:53:27;101110.72;;;-1.54;100.00
19777;BME280;10047;42.490;26.012;2023-02-12T03:56:19;101073.94;;;-1.60;100.00
19777;BME280;10047;42.490;26.012;2023-02-12T03:58:44;101127.75;;;-1.65;100.00
19777;BME280;10047;42.490;26.012;2023-02-12T04:01:11;101111.47;;;-1.78;100.00
19777;BME280;10047;42.490;26.012;2023-02-12T04:03:37;101100.72;;;-1.77;100.00
19777;BME280;10047;42.490;26.012;2023-02-12T04:06:03;101077.19;;;-1.83;100.00
19777;BME280;10047;42.490;26.012;2023-02-12T04:08:29;101065.66;;;-1.81;100.00
19777;BME280;10047;42.490;26.012;2023-02-12T04:16:53;101140.16;;;-1.66;100.00
19777;BME280;10047;42.490;26.012;2023-02-12T04:30:11;101146.56;;;-1.30;100.00
19777;BME280;10047;42.490;26.012;2023-02-12T04:33:03;101148.28;;;-1.50;100.00
19777;BME280;10047;42.490;26.012;2023-02-12T04:40:40;101152.81;;;-1.19;100.00
19777;BME280;10047;42.490;26.012;2023-02-12T04:43:06;101133.38;;;-1.70;100.00
19777;BME280;10047;42.490;26.012;2023-02-12T04:45:34;101113.97;;;-1.78;100.00
19777;BME280;10047;42.490;26.012;2023-02-12T04:48:00;101105.56;;;-1.59;100.00
19777;BME280;10047;42.490;26.012;2023-02-12T04:50:33;101105.88;;;-1.72;100.00
19777;BME280;10047;42.490;26.012;2023-02-12T04:53:01;101180.75;;;-1.48;100.00
19777;BME280;10047;42.490;26.012;2023-02-12T04:55:27;101177.66;;;-1.43;100.00
19777;BME280;10047;42.490;26.012;2023-02-12T04:57:52;101175.66;;;-1.09;100.00
19777;BME280;10047;42.490;26.012;2023-02-12T05:00:18;101135.78;;;-1.72;100.00
19777;BME280;10047;42.490;26.012;2023-02-12T05:02:43;101130.53;;;-1.57;100.00
19777;BME280;10047;42.490;26.012;2023-02-12T05:05:08;101152.97;;;-1.37;100.00
19777;BME280;10047;42.490;26.012;2023-02-12T05:07:34;101189.19;;;-1.65;100.00
19777;BME280;10047;42.490;26.012;2023-02-12T05:09:59;101183.56;;;-1.19;100.00
19777;BME280;10047;42.490;26.012;2023-02-12T05:12:25;101185.63;;;-1.31;100.00
19777;BME280;10047;42.490;26.012;2023-02-12T05:14:50;101206.78;;;-1.21;100.00
19777;BME280;10047;42.490;26.012;2023-02-12T05:17:15;101178.88;;;-1.33;100.00
19777;BME280;10047;42.490;26.012;2023-02-12T05:19:41;101196.94;;;-1.59;100.00
19777;BME280;10047;42.490;26.012;2023-02-12T05:22:06;101210.72;;;-1.06;100.00
19777;BME280;10047;42.490;26.012;2023-02-12T05:24:32;101211.72;;;-1.01;100.00
19777;BME280;10047;42.490;26.012;2023-02-12T05:26:57;101157.53;;;-1.68;100.00
19777;BME280;10047;42.490;26.012;2023-02-12T05:29:22;101165.31;;;-1.40;100.00
19777;BME280;10047;42.490;26.012;2023-02-12T05:31:48;101123.88;;;-1.79;100.00
19777;BME280;10047;42.490;26.012;2023-02-12T05:34:14;101219.78;;;-1.08;100.00
19777;BME280;10047;42.490;26.012;2023-02-12T05:36:39;101182.63;;;-1.22;100.00
19777;BME280;10047;42.490;26.012;2023-02-12T05:39:05;101182.44;;;-1.27;100.00
19777;BME280;10047;42.490;26.012;2023-02-12T05:41:31;101181.47;;;-1.30;100.00
19777;BME280;10047;42.490;26.012;2023-02-12T05:44:00;101177.78;;;-1.40;100.00
19777;BME280;10047;42.490;26.012;2023-02-12T05:46:26;101173.47;;;-1.64;100.00
19777;BME280;10047;42.490;26.012;2023-02-12T05:48:51;101233.78;;;-1.32;100.00
19777;BME280;10047;42.490;26.012;2023-02-12T05:51:19;101185.16;;;-1.43;100.00
19777;BME280;10047;42.490;26.012;2023-02-12T05:53:47;101199.28;;;-1.42;100.00
19777;BME280;10047;42.490;26.012;2023-02-12T05:56:16;101247.88;;;-1.32;100.00
19777;BME280;10047;42.490;26.012;2023-02-12T05:58:44;101198.63;;;-1.38;100.00
19777;BME280;10047;42.490;26.012;2023-02-12T06:01:12;101266.25;;;-1.30;100.00
19777;BME280;10047;42.490;26.012;2023-02-12T06:03:38;101185.63;;;-1.51;100.00
19777;BME280;10047;42.490;26.012;2023-02-12T06:06:04;101254.09;;;-1.43;100.00
19777;BME280;10047;42.490;26.012;2023-02-12T06:08:29;101257.72;;;-0.94;100.00
19777;BME280;10047;42.490;26.012;2023-02-12T06:10:59;101261.09;;;-0.71;100.00
19777;BME280;10047;42.490;26.012;2023-02-12T06:13:25;101197.94;;;-1.13;100.00
19777;BME280;10047;42.490;26.012;2023-02-12T06:15:50;101269.53;;;-0.90;100.00
19777;BME280;10047;42.490;26.012;2023-02-12T06:18:16;101254.66;;;-0.87;100.00
19777;BME280;10047;42.490;26.012;2023-02-12T06:20:41;101267.59;;;-0.97;100.00
19777;BME280;10047;42.490;26.012;2023-02-12T06:23:06;101230.16;;;-0.75;100.00
19777;BME280;10047;42.490;26.012;2023-02-12T06:25:32;101214.16;;;-1.02;100.00
19777;BME280;10047;42.490;26.012;2023-02-12T06:27:57;101285.47;;;-0.87;100.00
19777;BME280;10047;42.490;26.012;2023-02-12T06:30:23;101205.25;;;-1.38;100.00
19777;BME280;10047;42.490;26.012;2023-02-12T06:32:49;101274.19;;;-0.77;100.00
19777;BME280;10047;42.490;26.012;2023-02-12T06:35:14;101233.81;;;-0.67;100.00
19777;BME280;10047;42.490;26.012;2023-02-12T06:37:40;101231.09;;;1.82;100.00
19777;BME280;10047;42.490;26.012;2023-02-12T06:40:06;101245.38;;;-0.01;100.00
19777;BME280;10047;42.490;26.012;2023-02-12T06:42:31;101267.84;;;-0.69;100.00
19777;BME280;10047;42.490;26.012;2023-02-12T06:44:57;101221.22;;;-1.13;100.00
19777;BME280;10047;42.490;26.012;2023-02-12T06:47:22;101221.56;;;-1.26;100.00
19777;BME280;10047;42.490;26.012;2023-02-12T06:49:48;101216.50;;;-1.27;100.00
19777;BME280;10047;42.490;26.012;2023-02-12T06:52:13;101263.81;;;-0.88;100.00
19777;BME280;10047;42.490;26.012;2023-02-12T06:54:39;101270.47;;;-0.66;100.00
19777;BME280;10047;42.490;26.012;2023-02-12T06:57:04;101257.06;;;-0.90;100.00
19777;BME280;10047;42.490;26.012;2023-02-12T06:59:30;101268.31;;;-0.57;100.00
19777;BME280;10047;42.490;26.012;2023-02-12T07:01:55;101276.69;;;-0.55;100.00
19777;BME280;10047;42.490;26.012;2023-02-12T07:04:21;101284.38;;;-0.28;100.00
19777;BME280;10047;42.490;26.012;2023-02-12T07:06:46;101281.66;;;-0.34;100.00
19777;BME280;10047;42.490;26.012;2023-02-12T07:09:12;101238.53;;;-0.52;100.00
19777;BME280;10047;42.490;26.012;2023-02-12T07:11:37;101248.00;;;-0.44;100.00
19777;BME280;10047;42.490;26.012;2023-02-12T07:14:03;101270.22;;;-0.28;100.00
19777;BME280;10047;42.490;26.012;2023-02-12T07:16:28;101283.84;;;0.04;100.00
19777;BME280;10047;42.490;26.012;2023-02-12T07:18:54;101264.22;;;-0.33;100.00
19777;BME280;10047;42.490;26.012;2023-02-12T07:21:20;101216.28;;;0.01;100.00
19777;BME280;10047;42.490;26.012;2023-02-12T07:23:47;101248.28;;;-0.13;100.00
19777;BME280;10047;42.490;26.012;2023-02-12T07:26:14;101304.28;;;0.40;100.00
19777;BME280;10047;42.490;26.012;2023-02-12T07:28:40;101269.03;;;0.09;100.00
19777;BME280;10047;42.490;26.012;2023-02-12T07:31:11;101227.28;;;-0.18;100.00
19777;BME280;10047;42.490;26.012;2023-02-12T07:33:37;101309.13;;;0.35;100.00
19777;BME280;10047;42.490;26.012;2023-02-12T07:36:05;101250.78;;;0.11;100.00
19777;BME280;10047;42.490;26.012;2023-02-12T07:38:31;101296.69;;;0.37;100.00
19777;BME280;10047;42.490;26.012;2023-02-12T07:41:09;101275.66;;;0.55;100.00
19777;BME280;10047;42.490;26.012;2023-02-12T07:43:36;101233.22;;;0.33;100.00
19777;BME280;10047;42.490;26.012;2023-02-12T07:46:23;101295.63;;;1.06;100.00
19777;BME280;10047;42.490;26.012;2023-02-12T07:48:51;101243.56;;;0.69;100.00
19777;BME280;10047;42.490;26.012;2023-02-12T07:51:17;101293.84;;;1.28;100.00
19777;BME280;10047;42.490;26.012;2023-02-12T07:53:43;101296.19;;;1.24;100.00
19777;BME280;10047;42.490;26.012;2023-02-12T07:56:18;101291.09;;;1.49;100.00
19777;BME280;10047;42.490;26.012;2023-02-12T07:58:46;101239.16;;;1.15;100.00
19777;BME280;10047;42.490;26.012;2023-02-12T08:03:37;101284.84;;;1.91;100.00
19777;BME280;10047;42.490;26.012;2023-02-12T08:08:45;101258.38;;;3.76;100.00
19777;BME280;10047;42.490;26.012;2023-02-12T08:11:11;101159.69;;;1.67;100.00
19777;BME280;10047;42.490;26.012;2023-02-12T08:13:37;101273.00;;;2.82;100.00
19777;BME280;10047;42.490;26.012;2023-02-12T08:16:08;101263.66;;;1.80;100.00
19777;BME280;10047;42.490;26.012;2023-02-12T08:18:34;101283.03;;;2.17;100.00
19777;BME280;10047;42.490;26.012;2023-02-12T08:21:02;101235.16;;;2.40;100.00
19777;BME280;10047;42.490;26.012;2023-02-12T08:23:28;101277.84;;;2.42;100.00
19777;BME280;10047;42.490;26.012;2023-02-12T08:25:53;101273.38;;;2.63;100.00
19777;BME280;10047;42.490;26.012;2023-02-12T08:28:19;101296.72;;;2.59;100.00
19777;BME280;10047;42.490;26.012;2023-02-12T08:30:44;101306.00;;;2.63;100.00
19777;BME280;10047;42.490;26.012;2023-02-12T08:33:09;101278.88;;;2.50;100.00
19777;BME280;10047;42.490;26.012;2023-02-12T08:35:35;101278.22;;;3.25;100.00
19777;BME280;10047;42.490;26.012;2023-02-12T08:38:00;101283.91;;;2.83;100.00
19777;BME280;10047;42.490;26.012;2023-02-12T08:40:26;101256.56;;;3.30;100.00
19777;BME280;10047;42.490;26.012;2023-02-12T08:42:52;101284.00;;;3.60;100.00
19777;BME280;10047;42.490;26.012;2023-02-12T08:45:17;101284.84;;;3.61;100.00
19777;BME280;10047;42.490;26.012;2023-02-12T08:47:42;101258.06;;;3.63;100.00
19777;BME280;10047;42.490;26.012;2023-02-12T08:50:08;101296.50;;;3.96;100.00
19777;BME280;10047;42.490;26.012;2023-02-12T08:52:34;101246.72;;;4.24;100.00
19777;BME280;10047;42.490;26.012;2023-02-12T08:55:00;101249.31;;;4.29;100.00
19777;BME280;10047;42.490;26.012;2023-02-12T08:57:25;101291.13;;;4.69;100.00
19777;BME280;10047;42.490;26.012;2023-02-12T08:59:50;101288.28;;;4.49;100.00
19777;BME280;10047;42.490;26.012;2023-02-12T09:02:16;101250.38;;;4.91;100.00
19777;BME280;10047;42.490;26.012;2023-02-12T09:04:41;101298.03;;;5.33;100.00
19777;BME280;10047;42.490;26.012;2023-02-12T09:07:07;101315.13;;;5.55;100.00
19777;BME280;10047;42.490;26.012;2023-02-12T09:09:32;101223.38;;;4.85;100.00
19777;BME280;10047;42.490;26.012;2023-02-12T09:11:58;101313.09;;;5.29;100.00
19777;BME280;10047;42.490;26.012;2023-02-12T09:14:23;101302.75;;;5.71;100.00
19777;BME280;10047;42.490;26.012;2023-02-12T09:16:49;101296.13;;;5.76;100.00
19777;BME280;10047;42.490;26.012;2023-02-12T09:19:17;101289.88;;;6.16;100.00
19777;BME280;10047;42.490;26.012;2023-02-12T09:21:42;101245.22;;;6.09;100.00
19777;BME280;10047;42.490;26.012;2023-02-12T09:24:08;101256.84;;;5.96;100.00
19777;BME280;10047;42.490;26.012;2023-02-12T09:26:34;101277.22;;;6.11;100.00
19777;BME280;10047;42.490;26.012;2023-02-12T09:29:00;101307.91;;;5.77;100.00
19777;BME280;10047;42.490;26.012;2023-02-12T09:31:28;101278.63;;;5.88;100.00
19777;BME280;10047;42.490;26.012;2023-02-12T09:33:58;101256.97;;;6.07;99.99
19777;BME280;10047;42.490;26.012;2023-02-12T09:36:24;101274.41;;;5.89;100.00
19777;BME280;10047;42.490;26.012;2023-02-12T09:38:50;101297.97;;;5.88;100.00
19777;BME280;10047;42.490;26.012;2023-02-12T09:46:49;101318.66;;;6.30;98.00
19777;BME280;10047;42.490;26.012;2023-02-12T09:51:59;101267.00;;;6.01;94.94
19777;BME280;10047;42.490;26.012;2023-02-12T09:54:41;101268.19;;;6.32;98.99
19777;BME280;10047;42.490;26.012;2023-02-12T09:57:16;101253.50;;;5.99;96.84
19777;BME280;10047;42.490;26.012;2023-02-12T09:59:51;101279.34;;;6.55;95.68
19777;BME280;10047;42.490;26.012;2023-02-12T10:02:19;101225.38;;;6.50;92.37
19777;BME280;10047;42.490;26.012;2023-02-12T10:04:47;101264.00;;;6.38;91.43
19777;BME280;10047;42.490;26.012;2023-02-12T10:12:56;101319.25;;;8.27;84.29
19777;BME280;10047;42.490;26.012;2023-02-12T10:15:51;101323.47;;;8.30;79.31
19777;BME280;10047;42.490;26.012;2023-02-12T10:27:16;101330.22;;;8.31;73.49
19777;BME280;10047;42.490;26.012;2023-02-12T10:29:46;101309.19;;;8.57;70.89
19777;BME280;10047;42.490;26.012;2023-02-12T10:34:44;101320.16;;;8.71;67.87
19777;BME280;10047;42.490;26.012;2023-02-12T10:39:41;101301.59;;;8.80;67.64
19777;BME280;10047;42.490;26.012;2023-02-12T10:42:25;101328.63;;;8.90;68.20
19777;BME280;10047;42.490;26.012;2023-02-12T10:44:56;101332.84;;;8.59;65.64
19777;BME280;10047;42.490;26.012;2023-02-12T10:47:23;101314.19;;;8.42;66.30
19777;BME280;10047;42.490;26.012;2023-02-12T10:49:55;101286.31;;;8.38;70.56
19777;BME280;10047;42.490;26.012;2023-02-12T10:54:48;101330.19;;;8.26;70.58
19777;BME280;10047;42.490;26.012;2023-02-12T10:57:25;101309.91;;;8.23;68.23
19777;BME280;10047;42.490;26.012;2023-02-12T10:59:54;101354.75;;;8.47;68.54
19777;BME280;10047;42.490;26.012;2023-02-12T11:02:32;101363.06;;;8.17;66.30
19777;BME280;10047;42.490;26.012;2023-02-12T11:04:59;101365.59;;;8.20;66.02
19777;BME280;10047;42.490;26.012;2023-02-12T11:07:26;101331.72;;;7.93;65.44
19777;BME280;10047;42.490;26.012;2023-02-12T11:09:55;101312.25;;;7.78;66.59
19777;BME280;10047;42.490;26.012;2023-02-12T11:12:40;101376.59;;;8.19;65.76
19777;BME280;10047;42.490;26.012;2023-02-12T11:15:23;101333.50;;;8.12;65.88
19777;BME280;10047;42.490;26.012;2023-02-12T11:18:05;101367.31;;;8.24;67.42
19777;BME280;10047;42.490;26.012;2023-02-12T11:20:48;101370.78;;;8.34;67.95
19777;BME280;10047;42.490;26.012;2023-02-12T11:28:32;101383.34;;;8.20;64.98
19777;BME280;10047;42.490;26.012;2023-02-12T11:31:20;101371.63;;;8.37;63.49
19777;BME280;10047;42.490;26.012;2023-02-12T11:34:04;101356.47;;;8.49;64.97
19777;BME280;10047;42.490;26.012;2023-02-12T11:36:33;101323.47;;;8.30;60.70
19777;BME280;10047;42.490;26.012;2023-02-12T11:39:00;101371.72;;;8.75;56.32
19777;BME280;10047;42.490;26.012;2023-02-12T11:43:59;101340.47;;;9.08;53.69
19777;BME280;10047;42.490;26.012;2023-02-12T11:46:26;101382.78;;;9.21;52.60
19777;BME280;10047;42.490;26.012;2023-02-12T11:48:58;101393.75;;;9.14;54.20
19777;BME280;10047;42.490;26.012;2023-02-12T11:51:27;101318.50;;;9.01;53.79
19777;BME280;10047;42.490;26.012;2023-02-12T11:53:59;101388.69;;;9.54;52.26
19777;BME280;10047;42.490;26.012;2023-02-12T11:56:43;101383.59;;;9.50;51.77
19777;BME280;10047;42.490;26.012;2023-02-12T11:59:26;101345.53;;;9.20;52.74
19777;BME280;10047;42.490;26.012;2023-02-12T12:01:53;101324.34;;;9.66;52.53
19777;BME280;10047;42.490;26.012;2023-02-12T12:04:22;101380.19;;;9.51;51.93
19777;BME280;10047;42.490;26.012;2023-02-12T12:10:06;101381.88;;;9.61;50.81
19777;BME280;10047;42.490;26.012;2023-02-12T12:13:23;101392.88;;;9.72;53.19
19777;BME280;10047;42.490;26.012;2023-02-12T12:15:21;101391.09;;;9.98;52.91
19777;BME280;10047;42.490;26.012;2023-02-12T12:18:28;101396.28;;;9.41;51.86
19777;BME280;10047;42.490;26.012;2023-02-12T12:23:59;101383.56;;;9.74;53.61
19777;BME280;10047;42.490;26.012;2023-02-12T12:26:29;101309.97;;;8.37;56.50
19777;BME280;10047;42.490;26.012;2023-02-12T12:29:06;101386.13;;;8.85;59.34
19777;BME280;10047;42.490;26.012;2023-02-12T12:31:39;101331.97;;;8.56;60.31
19777;BME280;10047;42.490;26.012;2023-02-12T12:34:40;101393.75;;;9.60;60.45
19777;BME280;10047;42.490;26.012;2023-02-12T12:42:54;101396.31;;;9.42;62.18
19777;BME280;10047;42.490;26.012;2023-02-12T12:45:54;101399.66;;;9.76;60.83
19777;BME280;10047;42.490;26.012;2023-02-12T12:59:37;101406.41;;;9.67;65.12
19777;BME280;10047;42.490;26.012;2023-02-12T13:02:34;101409.84;;;9.28;67.55
19777;BME280;10047;42.490;26.012;2023-02-12T13:15:35;101419.91;;;8.78;82.64
19777;BME280;10047;42.490;26.012;2023-02-12T13:18:23;101427.44;;;8.55;86.68
19777;BME280;10047;42.490;26.012;2023-02-12T13:21:17;101429.16;;;8.59;88.52
19777;BME280;10047;42.490;26.012;2023-02-12T13:23:54;101339.28;;;7.85;93.88
19777;BME280;10047;42.490;26.012;2023-02-12T13:29:57;101429.09;;;8.43;99.22
19777;BME280;10047;42.490;26.012;2023-02-12T13:32:37;101434.84;;;8.19;100.00
19777;BME280;10047;42.490;26.012;2023-02-12T13:35:13;101385.72;;;7.87;100.00
19777;BME280;10047;42.490;26.012;2023-02-12T13:37:52;101446.63;;;8.11;100.00
19777;BME280;10047;42.490;26.012;2023-02-12T13:40:23;101418.66;;;7.93;100.00
19777;BME280;10047;42.490;26.012;2023-02-12T13:56:19;101423.34;;;7.40;100.00
19777;BME280;10047;42.490;26.012;2023-02-12T13:58:52;101478.38;;;7.65;100.00
19777;BME280;10047;42.490;26.012;2023-02-12T14:07:10;101498.50;;;7.52;100.00
19777;BME280;10047;42.490;26.012;2023-02-12T14:09:43;101501.97;;;7.61;100.00
19777;BME280;10047;42.490;26.012;2023-02-12T14:12:29;101448.47;;;7.22;100.00
19777;BME280;10047;42.490;26.012;2023-02-12T14:15:24;101517.13;;;7.58;100.00
19777;BME280;10047;42.490;26.012;2023-02-12T14:18:04;101471.19;;;7.18;100.00
19777;BME280;10047;42.490;26.012;2023-02-12T14:20:38;101534.72;;;7.46;100.00
19777;BME280;10047;42.490;26.012;2023-02-12T14:26:04;101535.47;;;7.35;100.00
19777;BME280;10047;42.490;26.012;2023-02-12T14:33:45;101516.41;;;6.92;100.00
19777;BME280;10047;42.490;26.012;2023-02-12T14:41:30;101569.66;;;7.03;100.00
19777;BME280;10047;42.490;26.012;2023-02-12T14:46:56;101534.69;;;6.70;100.00
19777;BME280;10047;42.490;26.012;2023-02-12T14:49:32;101592.25;;;6.92;100.00
19777;BME280;10047;42.490;26.012;2023-02-12T14:59:45;101609.78;;;6.80;100.00
19777;BME280;10047;42.490;26.012;2023-02-12T15:02:27;101600.38;;;6.68;100.00
19777;BME280;10047;42.490;26.012;2023-02-12T15:04:56;101608.06;;;6.77;100.00
19777;BME280;10047;42.490;26.012;2023-02-12T15:07:34;101552.84;;;6.42;100.00
19777;BME280;10047;42.490;26.012;2023-02-12T15:10:14;101611.28;;;6.66;100.00
19777;BME280;10047;42.490;26.012;2023-02-12T15:15:28;101634.78;;;6.60;100.00
19777;BME280;10047;42.490;26.012;2023-02-12T15:18:00;101643.97;;;6.55;100.00
19777;BME280;10047;42.490;26.012;2023-02-12T15:20:39;101642.25;;;6.53;100.00
19777;BME280;10047;42.490;26.012;2023-02-12T15:23:39;101654.78;;;6.47;100.00
19777;BME280;10047;42.490;26.012;2023-02-12T15:26:09;101588.72;;;6.79;100.00
19777;BME280;10047;42.490;26.012;2023-02-12T15:28:38;101655.47;;;6.38;100.00
19777;BME280;10047;42.490;26.012;2023-02-12T15:31:05;101598.53;;;6.04;100.00
19777;BME280;10047;42.490;26.012;2023-02-12T15:33:38;101617.94;;;6.08;100.00
19777;BME280;10047;42.490;26.012;2023-02-12T15:36:06;101674.81;;;6.36;100.00
19777;BME280;10047;42.490;26.012;2023-02-12T15:38:36;101623.22;;;6.22;100.00
19777;BME280;10047;42.490;26.012;2023-02-12T15:41:03;101634.75;;;6.06;100.00
19777;BME280;10047;42.490;26.012;2023-02-12T15:43:32;101646.53;;;6.06;100.00
19777;BME280;10047;42.490;26.012;2023-02-12T15:46:03;101626.41;;;6.10;100.00
19777;BME280;10047;42.490;26.012;2023-02-12T15:48:35;101633.72;;;5.94;100.00